Air Navigation Services of Czech Republic
Airport: LKMT Updated:  22.05.2019 02:30:26  UTC
 METAR LKMT 22.05. 02:30 ...
METAR LKMT 220230Z 23011KT 9999 OVC029 14/13 Q1004 NOSIG RMK REG QNH 1002=
 TAF LKMT 21.05. 23:00 ...
TAF LKMT 212300Z 2200/2306 25010KT 9999 BKN030      TEMPO 2200/2306 7000 SHRA SCT020TCU BKN030      PROB40 TEMPO 2203/2306 TSRA BKN007 BKN017CB      BECMG 2209/2211 30008KT      TEMPO 2211/2218 33010G30KT=